createdAt,value
2019-05-23T00:00:41.376Z,93.10
2019-05-23T00:03:13.857Z,93.10
2019-05-23T00:05:54.583Z,93.20
2019-05-23T00:08:29.473Z,92.90
2019-05-23T00:11:23.875Z,92.90
2019-05-23T00:14:13.209Z,92.90
2019-05-23T00:16:43.088Z,92.80
2019-05-23T00:19:14.757Z,93.10
2019-05-23T00:21:45.584Z,93.00
2019-05-23T00:24:15.716Z,93.10
2019-05-23T00:26:45.431Z,93.10
2019-05-23T00:29:15.272Z,92.90
2019-05-23T00:32:13.309Z,93.10
2019-05-23T00:34:45.524Z,93.00
2019-05-23T00:37:16.506Z,93.20
2019-05-23T00:39:47.304Z,93.40
2019-05-23T00:42:18.278Z,93.10
2019-05-23T00:44:49.002Z,93.10
2019-05-23T00:47:19.849Z,93.30
2019-05-23T00:49:51.203Z,93.20
2019-05-23T00:52:21.316Z,93.30
2019-05-23T00:54:51.566Z,93.10
2019-05-23T00:57:41.660Z,92.80
2019-05-23T01:00:12.994Z,93.00
2019-05-23T01:02:43.149Z,93.10
2019-05-23T01:05:14.429Z,93.10
2019-05-23T01:07:45.757Z,92.80
2019-05-23T01:10:18.175Z,92.90
2019-05-23T01:12:48.533Z,93.00
2019-05-23T01:15:18.786Z,92.80
2019-05-23T01:17:49.812Z,92.90
2019-05-23T01:20:23.771Z,93.00
2019-05-23T01:22:54.523Z,93.00
2019-05-23T01:25:25.967Z,93.00
2019-05-23T01:27:56.183Z,93.30
2019-05-23T01:30:28.780Z,93.30
2019-05-23T01:32:59.322Z,93.20
2019-05-23T01:35:30.600Z,93.20
2019-05-23T01:38:04.035Z,92.90
2019-05-23T01:40:32.133Z,93.00
2019-05-23T01:43:02.188Z,93.20
2019-05-23T01:45:33.916Z,93.00
2019-05-23T01:48:04.093Z,92.90
2019-05-23T01:50:33.806Z,92.60
2019-05-23T01:53:04.893Z,92.80
2019-05-23T01:55:35.155Z,92.70
2019-05-23T01:58:05.237Z,92.90
2019-05-23T02:00:35.784Z,92.90
2019-05-23T02:03:06.895Z,93.00
2019-05-23T02:05:37.457Z,92.70
2019-05-23T02:08:10.086Z,92.90
2019-05-23T02:10:40.124Z,93.10
2019-05-23T02:13:10.461Z,92.90
2019-05-23T02:15:40.796Z,93.00
2019-05-23T02:18:11.653Z,92.90
2019-05-23T02:20:41.531Z,92.80
2019-05-23T02:23:12.169Z,92.60
2019-05-23T02:25:42.805Z,93.00
2019-05-23T02:28:13.794Z,92.70
2019-05-23T02:30:43.569Z,92.80
2019-05-23T02:33:14.014Z,92.50
2019-05-23T02:35:44.948Z,92.50
2019-05-23T02:38:33.928Z,92.60
2019-05-23T02:41:25.817Z,92.70
2019-05-23T02:44:02.557Z,92.40
2019-05-23T02:46:51.292Z,92.40
2019-05-23T02:49:24.753Z,92.30
2019-05-23T02:51:56.683Z,92.20
2019-05-23T02:54:30.427Z,92.20
2019-05-23T02:57:03.997Z,92.40
2019-05-23T02:59:43.352Z,92.50
2019-05-23T03:02:52.605Z,92.50
2019-05-23T03:05:25.372Z,92.20
2019-05-23T03:07:56.353Z,92.30
2019-05-23T03:10:31.009Z,92.40
2019-05-23T03:13:01.996Z,92.30
2019-05-23T03:15:34.059Z,92.60
2019-05-23T03:18:06.081Z,92.40
2019-05-23T03:20:36.448Z,92.40
2019-05-23T03:23:13.762Z,92.40
2019-05-23T03:26:21.570Z,92.60
2019-05-23T03:28:52.430Z,92.30
2019-05-23T03:31:31.655Z,92.10
2019-05-23T03:33:58.929Z,92.20
2019-05-23T03:36:29.308Z,92.10
2019-05-23T03:38:59.331Z,92.40
2019-05-23T03:41:30.363Z,92.50
2019-05-23T03:44:03.311Z,92.60
2019-05-23T03:46:34.571Z,92.40
2019-05-23T03:49:05.389Z,92.60
2019-05-23T03:51:36.655Z,92.60
2019-05-23T03:54:06.749Z,92.70
2019-05-23T03:56:37.831Z,92.90
2019-05-23T03:59:08.046Z,92.60
2019-05-23T04:01:47.524Z,92.70
2019-05-23T04:04:12.158Z,92.40
2019-05-23T04:06:43.022Z,92.30
2019-05-23T04:09:12.831Z,92.10
2019-05-23T04:11:42.782Z,92.20
2019-05-23T04:14:12.815Z,92.00
2019-05-23T04:16:42.793Z,92.00
2019-05-23T04:19:12.603Z,92.10
2019-05-23T04:21:44.718Z,92.10
2019-05-23T04:24:15.577Z,92.00
2019-05-23T04:26:45.968Z,92.00
2019-05-23T04:29:15.827Z,92.00
2019-05-23T04:31:45.832Z,92.10
2019-05-23T04:34:15.666Z,92.10
2019-05-23T04:36:45.804Z,92.30
2019-05-23T04:39:15.782Z,92.20
2019-05-23T04:41:45.902Z,92.30
2019-05-23T04:44:17.576Z,92.40
2019-05-23T04:46:47.861Z,92.20
2019-05-23T04:49:17.892Z,92.00
2019-05-23T04:51:47.689Z,91.90
2019-05-23T04:54:17.893Z,91.70
2019-05-23T04:56:47.810Z,91.90
2019-05-23T04:59:18.081Z,91.80
2019-05-23T05:01:48.337Z,91.80
2019-05-23T05:04:18.324Z,92.00
2019-05-23T05:06:51.564Z,92.10
2019-05-23T05:09:25.750Z,91.80
2019-05-23T05:11:55.661Z,91.60
2019-05-23T05:14:26.767Z,91.50
2019-05-23T05:16:57.684Z,91.50
2019-05-23T05:19:28.858Z,91.70
2019-05-23T05:21:58.803Z,91.70
2019-05-23T05:24:28.440Z,91.70
2019-05-23T05:26:58.235Z,91.30
2019-05-23T05:29:28.150Z,90.70
2019-05-23T05:31:58.137Z,91.70
2019-05-23T05:34:28.588Z,91.10
2019-05-23T05:36:58.398Z,91.20
2019-05-23T05:39:28.540Z,91.10
2019-05-23T05:41:58.918Z,91.30
2019-05-23T05:44:28.630Z,90.80
2019-05-23T05:46:58.640Z,90.20
2019-05-23T05:49:28.811Z,90.20
2019-05-23T05:51:58.802Z,90.30
2019-05-23T05:54:29.203Z,90.50
2019-05-23T05:56:58.946Z,90.20
2019-05-23T05:59:29.992Z,88.50
2019-05-23T06:01:59.827Z,88.20
2019-05-23T06:04:30.080Z,89.00
2019-05-23T06:07:18.620Z,89.40
2019-05-23T06:09:49.674Z,88.00
2019-05-23T06:12:19.732Z,87.10
2019-05-23T06:14:50.099Z,86.50
2019-05-23T06:17:21.102Z,85.90
2019-05-23T06:19:51.127Z,87.00
2019-05-23T06:22:20.927Z,87.50
2019-05-23T06:24:54.713Z,87.60
2019-05-23T06:27:23.142Z,86.50
2019-05-23T06:29:53.087Z,86.00
2019-05-23T06:32:25.648Z,88.80
2019-05-23T06:34:56.688Z,86.10
2019-05-23T06:37:26.803Z,84.70
2019-05-23T06:39:56.964Z,85.20
2019-05-23T06:42:26.841Z,83.60
2019-05-23T06:44:57.154Z,85.00
2019-05-23T06:47:27.580Z,85.40
2019-05-23T06:49:57.378Z,86.00
2019-05-23T06:52:27.780Z,84.90
2019-05-23T06:54:59.692Z,86.00
2019-05-23T06:57:29.369Z,83.50
2019-05-23T06:59:59.573Z,85.10
2019-05-23T07:02:32.068Z,86.40
2019-05-23T07:05:01.487Z,84.40
2019-05-23T07:07:32.600Z,87.50
2019-05-23T07:10:03.389Z,82.40
2019-05-23T07:12:33.205Z,83.90
2019-05-23T07:15:03.155Z,85.70
2019-05-23T07:17:33.447Z,82.80
2019-05-23T07:20:04.185Z,81.70
2019-05-23T07:23:06.516Z,83.50
2019-05-23T07:25:17.028Z,82.60
2019-05-23T07:27:46.915Z,84.00
2019-05-23T07:30:21.244Z,84.10
2019-05-23T07:32:51.225Z,85.40
2019-05-23T07:35:21.368Z,84.80
2019-05-23T07:37:51.163Z,83.80
2019-05-23T07:40:21.636Z,85.00
2019-05-23T07:42:51.619Z,84.60
2019-05-23T07:45:25.833Z,85.10
2019-05-23T07:47:55.556Z,84.10
2019-05-23T07:50:25.386Z,84.10
2019-05-23T07:52:56.931Z,83.50
2019-05-23T07:55:32.370Z,85.00
2019-05-23T07:58:02.270Z,84.30
2019-05-23T08:00:34.912Z,83.90
2019-05-23T08:03:06.929Z,84.10
2019-05-23T08:05:36.830Z,84.70
2019-05-23T08:08:07.291Z,83.70
2019-05-23T08:10:37.471Z,84.10
2019-05-23T08:13:07.390Z,82.10
2019-05-23T08:15:37.109Z,84.80
2019-05-23T08:18:07.332Z,83.80
2019-05-23T08:20:40.524Z,82.00
2019-05-23T08:23:10.340Z,83.10
2019-05-23T08:25:40.110Z,81.60
2019-05-23T08:28:09.785Z,83.10
2019-05-23T08:30:39.549Z,83.10
2019-05-23T08:33:09.447Z,83.10
2019-05-23T08:35:39.427Z,79.40
2019-05-23T08:38:10.344Z,79.80
2019-05-23T08:40:41.046Z,80.00
2019-05-23T08:43:10.783Z,82.70
2019-05-23T08:45:40.677Z,79.40
2019-05-23T08:48:10.462Z,80.60
2019-05-23T08:50:41.017Z,79.40
2019-05-23T08:53:10.742Z,81.10
2019-05-23T08:55:40.724Z,79.50
2019-05-23T08:58:12.357Z,78.00
2019-05-23T09:00:43.113Z,77.10
2019-05-23T09:03:13.714Z,81.70
2019-05-23T09:05:44.710Z,78.90
2019-05-23T09:08:16.861Z,80.10
2019-05-23T09:10:48.321Z,78.10
2019-05-23T09:13:18.949Z,80.40
2019-05-23T09:15:53.021Z,80.30
2019-05-23T09:18:20.055Z,81.90
2019-05-23T09:20:49.727Z,76.70
2019-05-23T09:23:19.594Z,76.90
2019-05-23T09:25:49.736Z,75.20
2019-05-23T09:28:19.744Z,73.70
2019-05-23T09:30:49.480Z,73.70
2019-05-23T09:33:19.335Z,72.00
2019-05-23T09:36:18.761Z,76.10
2019-05-23T09:38:48.956Z,79.80
2019-05-23T09:41:28.295Z,76.90
2019-05-23T09:44:02.093Z,75.00
2019-05-23T09:46:32.253Z,76.80
2019-05-23T09:49:02.114Z,75.30
2019-05-23T09:51:31.861Z,71.40
2019-05-23T09:54:01.489Z,75.40
2019-05-23T09:56:32.982Z,69.40
2019-05-23T09:59:02.649Z,70.20
2019-05-23T10:01:33.140Z,73.20
2019-05-23T10:04:03.449Z,74.20
2019-05-23T10:06:33.276Z,77.20
2019-05-23T10:09:08.002Z,71.20
2019-05-23T10:11:37.893Z,71.40
2019-05-23T10:14:09.322Z,65.60
2019-05-23T10:16:39.303Z,70.80
2019-05-23T10:19:09.092Z,73.60
2019-05-23T10:21:38.847Z,71.50
2019-05-23T10:24:09.222Z,73.30
2019-05-23T10:26:38.965Z,70.80
2019-05-23T10:29:08.788Z,68.80
2019-05-23T10:31:38.585Z,68.30
2019-05-23T10:34:08.565Z,67.20
2019-05-23T10:36:38.497Z,67.80
2019-05-23T10:39:10.622Z,65.40
2019-05-23T10:41:40.566Z,65.80
2019-05-23T10:44:10.985Z,65.70
2019-05-23T10:46:40.707Z,66.00
2019-05-23T10:49:10.618Z,66.50
2019-05-23T10:51:40.677Z,65.40
2019-05-23T10:54:10.497Z,64.70
2019-05-23T10:56:40.318Z,71.00
2019-05-23T10:59:10.247Z,65.60
2019-05-23T11:01:41.101Z,63.40
2019-05-23T11:04:11.056Z,64.90
2019-05-23T11:06:40.840Z,63.80
2019-05-23T11:09:12.492Z,63.40
2019-05-23T11:11:42.587Z,64.30
2019-05-23T11:14:12.602Z,66.70
2019-05-23T11:16:42.526Z,61.10
2019-05-23T11:19:12.472Z,61.90
2019-05-23T11:21:42.305Z,62.30
2019-05-23T11:24:12.388Z,63.70
2019-05-23T11:26:42.294Z,64.20
2019-05-23T11:29:12.155Z,63.10
2019-05-23T11:31:42.383Z,68.40
2019-05-23T11:34:13.637Z,66.10
2019-05-23T11:36:43.613Z,62.20
2019-05-23T11:39:14.284Z,62.80
2019-05-23T11:41:44.176Z,61.70
2019-05-23T11:44:13.984Z,59.10
2019-05-23T11:46:43.997Z,57.80
2019-05-23T11:49:14.765Z,56.20
2019-05-23T11:51:46.983Z,57.30
2019-05-23T11:54:18.592Z,57.90
2019-05-23T11:56:48.864Z,58.40
2019-05-23T11:59:18.646Z,59.40
2019-05-23T12:02:19.846Z,59.80
2019-05-23T12:04:51.373Z,59.20
2019-05-23T12:07:31.533Z,55.40
2019-05-23T12:10:01.397Z,54.40
2019-05-23T12:12:31.724Z,60.80
2019-05-23T12:15:01.566Z,59.60
2019-05-23T12:17:32.014Z,57.80
2019-05-23T12:20:01.706Z,60.00
2019-05-23T12:22:31.699Z,53.70
2019-05-23T12:25:20.173Z,54.10
2019-05-23T12:27:32.891Z,54.30
2019-05-23T12:30:04.130Z,52.10
2019-05-23T12:32:33.837Z,54.00
2019-05-23T12:35:11.241Z,53.10
2019-05-23T12:37:35.451Z,51.00
2019-05-23T12:40:07.932Z,51.30
2019-05-23T12:42:37.704Z,51.20
2019-05-23T12:45:08.838Z,54.50
2019-05-23T12:48:01.708Z,53.00
2019-05-23T12:50:36.914Z,54.30
2019-05-23T12:53:07.530Z,57.00
2019-05-23T12:55:37.639Z,55.80
2019-05-23T12:58:07.790Z,52.80
2019-05-23T13:00:47.105Z,51.50
2019-05-23T13:03:16.944Z,53.70
2019-05-23T13:05:46.761Z,53.50
2019-05-23T13:08:17.075Z,54.90
2019-05-23T13:10:46.852Z,55.60
2019-05-23T13:13:17.032Z,51.40
2019-05-23T13:15:46.746Z,53.00
2019-05-23T13:18:16.512Z,52.50
2019-05-23T13:20:46.324Z,52.30
2019-05-23T13:23:20.743Z,56.20
2019-05-23T13:25:48.155Z,51.60
2019-05-23T13:28:18.180Z,51.70
2019-05-23T13:30:48.236Z,50.80
2019-05-23T13:33:18.701Z,52.90
2019-05-23T13:35:48.897Z,53.40
2019-05-23T13:38:18.709Z,55.90
2019-05-23T13:40:48.476Z,55.40
2019-05-23T13:43:18.249Z,54.50
2019-05-23T13:45:48.228Z,51.40
2019-05-23T13:48:18.170Z,51.20
2019-05-23T13:50:48.116Z,52.50
2019-05-23T13:53:18.216Z,55.40
2019-05-23T13:55:47.964Z,50.50
2019-05-23T13:58:18.039Z,53.90
2019-05-23T14:00:47.859Z,50.60
2019-05-23T14:03:17.820Z,51.00
2019-05-23T14:05:47.479Z,51.30
2019-05-23T14:08:19.370Z,51.40
2019-05-23T14:10:48.806Z,52.90
2019-05-23T14:13:18.599Z,49.70
2019-05-23T14:15:50.740Z,51.80
2019-05-23T14:18:21.065Z,51.60
2019-05-23T14:20:51.052Z,49.00
2019-05-23T14:23:28.291Z,49.40
2019-05-23T14:25:58.851Z,48.50
2019-05-23T14:28:29.553Z,47.90
2019-05-23T14:31:24.842Z,49.90
2019-05-23T14:34:03.409Z,49.20
2019-05-23T14:36:49.040Z,49.00
2019-05-23T14:39:29.695Z,50.70
2019-05-23T14:42:05.340Z,48.20
2019-05-23T14:44:35.507Z,48.80
2019-05-23T14:47:33.989Z,50.50
2019-05-23T14:50:25.980Z,47.40
2019-05-23T14:52:58.141Z,47.20
2019-05-23T14:55:31.025Z,50.10
2019-05-23T14:58:01.634Z,49.00
2019-05-23T15:00:31.418Z,46.50
2019-05-23T15:03:01.383Z,46.10
2019-05-23T15:05:31.149Z,44.50
2019-05-23T15:08:00.916Z,48.20
2019-05-23T15:10:30.889Z,45.20
2019-05-23T15:13:01.139Z,46.80
2019-05-23T15:15:31.005Z,45.40
2019-05-23T15:18:00.781Z,45.80
2019-05-23T15:20:30.799Z,46.90
2019-05-23T15:23:00.576Z,46.00
2019-05-23T15:25:30.349Z,44.90
2019-05-23T15:28:00.341Z,47.80
2019-05-23T15:30:30.121Z,45.80
2019-05-23T15:32:59.873Z,47.10
2019-05-23T15:35:30.147Z,44.70
2019-05-23T15:38:00.434Z,45.60
2019-05-23T15:40:51.421Z,48.00
2019-05-23T15:43:21.515Z,42.20
2019-05-23T15:45:51.760Z,41.40
2019-05-23T15:48:21.772Z,42.20
2019-05-23T15:50:52.803Z,41.60
2019-05-23T15:53:34.747Z,43.90
2019-05-23T15:56:26.976Z,42.50
2019-05-23T15:59:17.717Z,42.80
2019-05-23T16:01:58.008Z,43.20
2019-05-23T16:04:28.240Z,40.30
2019-05-23T16:06:58.152Z,40.90
2019-05-23T16:09:30.903Z,41.70
2019-05-23T16:12:00.075Z,41.60
2019-05-23T16:14:31.368Z,43.90
2019-05-23T16:17:01.032Z,40.20
2019-05-23T16:19:31.410Z,42.40
2019-05-23T16:22:01.217Z,44.00
2019-05-23T16:24:38.206Z,44.00
2019-05-23T16:27:08.735Z,44.70
2019-05-23T16:29:38.924Z,43.90
2019-05-23T16:32:08.762Z,44.30
2019-05-23T16:34:38.642Z,44.30
2019-05-23T16:37:08.359Z,43.50
2019-05-23T16:39:47.525Z,45.30
2019-05-23T16:42:10.149Z,46.40
2019-05-23T16:44:39.904Z,45.70
2019-05-23T16:47:09.696Z,45.30
2019-05-23T16:49:39.556Z,43.90
2019-05-23T16:52:09.349Z,44.40
2019-05-23T16:54:43.023Z,45.20
2019-05-23T16:57:35.206Z,43.70
2019-05-23T17:00:41.078Z,44.60
2019-05-23T17:03:29.190Z,43.20
2019-05-23T17:06:17.423Z,44.30
2019-05-23T17:09:02.960Z,44.00
2019-05-23T17:11:47.486Z,44.50
2019-05-23T17:14:23.573Z,45.10
2019-05-23T17:17:05.592Z,46.10
2019-05-23T17:20:00.877Z,44.20
2019-05-23T17:22:42.006Z,45.00
2019-05-23T17:25:29.401Z,44.10
2019-05-23T17:28:20.368Z,43.60
2019-05-23T17:30:56.701Z,44.10
2019-05-23T17:33:26.670Z,46.80
2019-05-23T17:35:57.030Z,46.70
2019-05-23T17:38:27.333Z,44.10
2019-05-23T17:40:57.182Z,45.20
2019-05-23T17:43:27.446Z,45.70
2019-05-23T17:45:57.142Z,46.00
2019-05-23T17:48:26.942Z,46.00
2019-05-23T17:50:56.832Z,47.00
2019-05-23T17:53:27.372Z,46.80
2019-05-23T17:55:57.304Z,47.60
2019-05-23T17:58:27.249Z,48.20
2019-05-23T18:00:58.295Z,49.00
2019-05-23T18:03:29.253Z,50.70
2019-05-23T18:05:59.129Z,50.80
2019-05-23T18:08:30.485Z,51.00
2019-05-23T18:11:00.952Z,48.90
2019-05-23T18:13:30.704Z,50.50
2019-05-23T18:16:01.262Z,51.40
2019-05-23T18:18:32.272Z,53.10
2019-05-23T18:21:03.493Z,53.60
2019-05-23T18:23:33.335Z,54.60
2019-05-23T18:26:03.119Z,55.40
2019-05-23T18:28:33.388Z,56.20
2019-05-23T18:31:11.007Z,57.20
2019-05-23T18:33:42.070Z,58.70
2019-05-23T18:36:12.297Z,60.20
2019-05-23T18:38:42.481Z,61.40
2019-05-23T18:41:12.511Z,62.40
2019-05-23T18:43:43.312Z,63.40
2019-05-23T18:46:18.615Z,64.10
2019-05-23T18:48:48.563Z,65.30
2019-05-23T18:51:18.506Z,65.50
2019-05-23T18:53:48.294Z,66.60
2019-05-23T18:56:17.985Z,67.30
2019-05-23T18:58:47.893Z,67.80
2019-05-23T19:01:20.057Z,68.10
2019-05-23T19:03:50.057Z,68.90
2019-05-23T19:06:19.794Z,70.00
2019-05-23T19:08:50.061Z,70.60
2019-05-23T19:11:21.608Z,70.90
2019-05-23T19:13:51.184Z,72.50
2019-05-23T19:16:20.997Z,73.70
2019-05-23T19:18:50.891Z,75.50
2019-05-23T19:21:21.056Z,75.40
2019-05-23T19:23:51.953Z,75.90
2019-05-23T19:26:24.957Z,76.60
2019-05-23T19:28:54.924Z,77.20
2019-05-23T19:31:25.131Z,77.80
2019-05-23T19:33:55.069Z,78.20
2019-05-23T19:36:25.002Z,78.50
2019-05-23T19:38:54.736Z,78.90
2019-05-23T19:41:36.866Z,79.10
2019-05-23T19:43:56.338Z,79.50
2019-05-23T19:46:26.043Z,79.30
2019-05-23T19:48:57.577Z,79.60
2019-05-23T19:51:27.368Z,80.20
2019-05-23T19:54:04.085Z,80.30
2019-05-23T19:56:29.751Z,80.50
2019-05-23T19:58:59.669Z,80.50
2019-05-23T20:01:32.464Z,80.90
2019-05-23T20:04:03.116Z,80.70
2019-05-23T20:06:33.294Z,80.70
2019-05-23T20:09:04.498Z,80.70
2019-05-23T20:11:34.503Z,80.30
2019-05-23T20:14:04.549Z,80.20
2019-05-23T20:16:34.525Z,80.30
2019-05-23T20:19:05.032Z,80.40
2019-05-23T20:21:34.951Z,80.40
2019-05-23T20:24:04.974Z,80.30
2019-05-23T20:26:34.863Z,80.10
2019-05-23T20:29:04.813Z,80.20
2019-05-23T20:31:34.828Z,80.10
2019-05-23T20:34:07.441Z,80.00
2019-05-23T20:36:38.841Z,79.90
2019-05-23T20:39:08.604Z,79.80
2019-05-23T20:41:38.848Z,80.50
2019-05-23T20:44:08.605Z,80.90
2019-05-23T20:46:38.455Z,81.10
2019-05-23T20:49:08.434Z,80.80
2019-05-23T20:51:39.388Z,80.80
2019-05-23T20:54:09.460Z,80.80
2019-05-23T20:56:39.185Z,80.60
2019-05-23T20:59:09.900Z,80.80
2019-05-23T21:01:42.213Z,80.90
2019-05-23T21:04:11.957Z,80.60
2019-05-23T21:06:41.850Z,80.40
2019-05-23T21:09:15.388Z,79.20
2019-05-23T21:11:43.196Z,78.80
2019-05-23T21:14:13.159Z,78.00
2019-05-23T21:16:43.369Z,77.00
2019-05-23T21:19:13.125Z,76.90
2019-05-23T21:21:42.878Z,76.90
2019-05-23T21:24:13.154Z,77.90
2019-05-23T21:26:42.928Z,79.50
2019-05-23T21:29:12.774Z,81.00
2019-05-23T21:31:42.736Z,80.40
2019-05-23T21:34:12.750Z,80.10
2019-05-23T21:36:42.503Z,80.10
2019-05-23T21:39:13.230Z,80.50
2019-05-23T21:41:42.992Z,80.90
2019-05-23T21:44:12.660Z,81.50
2019-05-23T21:46:42.545Z,81.90
2019-05-23T21:49:12.469Z,82.00
2019-05-23T21:51:42.269Z,81.80
2019-05-23T21:54:12.548Z,81.90
2019-05-23T21:56:42.251Z,82.20
2019-05-23T21:59:12.193Z,82.80
2019-05-23T22:02:06.714Z,83.30
2019-05-23T22:04:55.394Z,84.10
2019-05-23T22:07:25.196Z,84.70
2019-05-23T22:09:54.953Z,85.00
2019-05-23T22:12:25.034Z,84.50
2019-05-23T22:14:55.269Z,84.80
2019-05-23T22:17:26.937Z,84.80
2019-05-23T22:19:56.926Z,84.60
2019-05-23T22:22:27.056Z,84.80
2019-05-23T22:24:56.817Z,85.00
2019-05-23T22:27:26.731Z,85.20
2019-05-23T22:29:56.609Z,85.50
2019-05-23T22:32:26.817Z,85.40
2019-05-23T22:35:04.049Z,85.10
2019-05-23T22:37:33.940Z,85.10
2019-05-23T22:40:05.490Z,85.30
2019-05-23T22:42:36.677Z,84.40
2019-05-23T22:45:09.634Z,83.70
2019-05-23T22:47:39.443Z,83.40
2019-05-23T22:50:09.116Z,82.80
2019-05-23T22:52:39.285Z,82.60
2019-05-23T22:55:08.965Z,81.40
2019-05-23T22:57:38.959Z,81.00
2019-05-23T23:00:09.215Z,80.80
2019-05-23T23:02:38.978Z,80.90
2019-05-23T23:05:08.709Z,80.80
2019-05-23T23:07:38.817Z,80.90
2019-05-23T23:10:09.072Z,81.70
2019-05-23T23:12:38.857Z,82.20
2019-05-23T23:15:08.997Z,82.80
2019-05-23T23:17:38.721Z,83.00
2019-05-23T23:20:09.221Z,83.40
2019-05-23T23:22:39.065Z,84.10
2019-05-23T23:25:09.129Z,84.80
2019-05-23T23:27:38.791Z,85.50
2019-05-23T23:30:09.334Z,86.20
2019-05-23T23:32:39.059Z,86.00
2019-05-23T23:35:09.065Z,85.20
2019-05-23T23:37:38.783Z,85.40
2019-05-23T23:40:09.206Z,85.70
2019-05-23T23:42:39.408Z,85.60
2019-05-23T23:45:26.990Z,85.50
2019-05-23T23:48:14.508Z,85.70
2019-05-23T23:51:01.646Z,85.90
2019-05-23T23:53:49.163Z,86.10
2019-05-23T23:56:36.599Z,86.20
2019-05-23T23:59:05.291Z,85.80
